sensor_id;sensor_type;location;lat;lon;timestamp;P1;durP1;ratioP1;P2;durP2;ratioP2
7158;SDS011;63175;52.374;13.132;2023-04-15T00:00:06;6.10;;;5.60;;
7158;SDS011;63175;52.374;13.132;2023-04-15T00:02:34;6.60;;;6.10;;
7158;SDS011;63175;52.374;13.132;2023-04-15T00:05:02;7.97;;;7.27;;
7158;SDS011;63175;52.374;13.132;2023-04-15T00:07:30;7.53;;;6.80;;
7158;SDS011;63175;52.374;13.132;2023-04-15T00:09:57;6.60;;;6.00;;
7158;SDS011;63175;52.374;13.132;2023-04-15T00:12:24;7.57;;;6.90;;
7158;SDS011;63175;52.374;13.132;2023-04-15T00:14:51;6.83;;;6.20;;
7158;SDS011;63175;52.374;13.132;2023-04-15T00:17:18;7.03;;;6.43;;
7158;SDS011;63175;52.374;13.132;2023-04-15T00:19:45;7.30;;;6.60;;
7158;SDS011;63175;52.374;13.132;2023-04-15T00:22:13;8.83;;;8.00;;
7158;SDS011;63175;52.374;13.132;2023-04-15T00:24:41;7.33;;;6.70;;
7158;SDS011;63175;52.374;13.132;2023-04-15T00:27:08;6.70;;;6.20;;
7158;SDS011;63175;52.374;13.132;2023-04-15T00:29:35;7.53;;;6.83;;
7158;SDS011;63175;52.374;13.132;2023-04-15T00:32:02;8.10;;;7.40;;
7158;SDS011;63175;52.374;13.132;2023-04-15T00:34:29;7.93;;;7.10;;
7158;SDS011;63175;52.374;13.132;2023-04-15T00:36:56;7.97;;;7.17;;
7158;SDS011;63175;52.374;13.132;2023-04-15T00:39:25;7.20;;;6.60;;
7158;SDS011;63175;52.374;13.132;2023-04-15T00:41:52;7.80;;;7.10;;
7158;SDS011;63175;52.374;13.132;2023-04-15T00:44:19;7.90;;;7.10;;
7158;SDS011;63175;52.374;13.132;2023-04-15T00:46:46;7.93;;;7.23;;
7158;SDS011;63175;52.374;13.132;2023-04-15T00:49:15;6.70;;;6.20;;
7158;SDS011;63175;52.374;13.132;2023-04-15T00:51:43;6.60;;;6.03;;
7158;SDS011;63175;52.374;13.132;2023-04-15T00:54:10;7.93;;;7.13;;
7158;SDS011;63175;52.374;13.132;2023-04-15T00:56:38;8.83;;;7.97;;
7158;SDS011;63175;52.374;13.132;2023-04-15T00:59:06;9.00;;;8.10;;
7158;SDS011;63175;52.374;13.132;2023-04-15T01:01:34;9.63;;;8.43;;
7158;SDS011;63175;52.374;13.132;2023-04-15T01:04:02;9.50;;;8.60;;
7158;SDS011;63175;52.374;13.132;2023-04-15T01:06:30;9.60;;;8.70;;
7158;SDS011;63175;52.374;13.132;2023-04-15T01:08:57;8.60;;;7.70;;
7158;SDS011;63175;52.374;13.132;2023-04-15T01:11:25;8.90;;;8.10;;
7158;SDS011;63175;52.374;13.132;2023-04-15T01:13:55;8.13;;;7.43;;
7158;SDS011;63175;52.374;13.132;2023-04-15T01:16:23;9.40;;;8.23;;
7158;SDS011;63175;52.374;13.132;2023-04-15T01:18:51;9.93;;;8.93;;
7158;SDS011;63175;52.374;13.132;2023-04-15T01:21:18;12.63;;;11.10;;
7158;SDS011;63175;52.374;13.132;2023-04-15T01:23:46;11.70;;;10.57;;
7158;SDS011;63175;52.374;13.132;2023-04-15T01:26:14;9.17;;;8.27;;
7158;SDS011;63175;52.374;13.132;2023-04-15T01:28:41;11.10;;;9.10;;
7158;SDS011;63175;52.374;13.132;2023-04-15T01:31:09;11.77;;;10.57;;
7158;SDS011;63175;52.374;13.132;2023-04-15T01:33:37;12.03;;;10.80;;
7158;SDS011;63175;52.374;13.132;2023-04-15T01:36:05;13.07;;;10.43;;
7158;SDS011;63175;52.374;13.132;2023-04-15T01:38:34;10.50;;;9.40;;
7158;SDS011;63175;52.374;13.132;2023-04-15T01:41:01;12.03;;;10.83;;
7158;SDS011;63175;52.374;13.132;2023-04-15T01:43:30;12.03;;;10.80;;
7158;SDS011;63175;52.374;13.132;2023-04-15T01:45:57;11.40;;;10.20;;
7158;SDS011;63175;52.374;13.132;2023-04-15T01:48:24;18.40;;;14.90;;
7158;SDS011;63175;52.374;13.132;2023-04-15T01:50:51;13.70;;;12.10;;
7158;SDS011;63175;52.374;13.132;2023-04-15T01:53:21;12.53;;;11.23;;
7158;SDS011;63175;52.374;13.132;2023-04-15T01:55:48;12.60;;;11.37;;
7158;SDS011;63175;52.374;13.132;2023-04-15T01:58:15;15.17;;;12.77;;
7158;SDS011;63175;52.374;13.132;2023-04-15T02:00:43;13.27;;;11.87;;
7158;SDS011;63175;52.374;13.132;2023-04-15T02:03:10;11.90;;;10.70;;
7158;SDS011;63175;52.374;13.132;2023-04-15T02:05:37;12.23;;;10.90;;
7158;SDS011;63175;52.374;13.132;2023-04-15T02:08:04;11.87;;;10.67;;
7158;SDS011;63175;52.374;13.132;2023-04-15T02:10:31;9.97;;;8.97;;
7158;SDS011;63175;52.374;13.132;2023-04-15T02:12:57;9.60;;;8.77;;
7158;SDS011;63175;52.374;13.132;2023-04-15T02:15:25;10.90;;;9.80;;
7158;SDS011;63175;52.374;13.132;2023-04-15T02:17:53;10.17;;;9.13;;
7158;SDS011;63175;52.374;13.132;2023-04-15T02:20:20;15.10;;;13.50;;
7158;SDS011;63175;52.374;13.132;2023-04-15T02:22:47;12.17;;;10.97;;
7158;SDS011;63175;52.374;13.132;2023-04-15T02:25:14;13.70;;;12.30;;
7158;SDS011;63175;52.374;13.132;2023-04-15T02:27:41;13.50;;;12.10;;
7158;SDS011;63175;52.374;13.132;2023-04-15T02:30:08;13.40;;;11.30;;
7158;SDS011;63175;52.374;13.132;2023-04-15T02:32:36;11.90;;;10.70;;
7158;SDS011;63175;52.374;13.132;2023-04-15T02:35:05;12.90;;;11.20;;
7158;SDS011;63175;52.374;13.132;2023-04-15T02:37:34;14.10;;;11.87;;
7158;SDS011;63175;52.374;13.132;2023-04-15T02:40:05;12.87;;;11.27;;
7158;SDS011;63175;52.374;13.132;2023-04-15T02:42:33;11.70;;;10.50;;
7158;SDS011;63175;52.374;13.132;2023-04-15T02:45:00;13.20;;;11.43;;
7158;SDS011;63175;52.374;13.132;2023-04-15T02:47:27;11.60;;;10.40;;
7158;SDS011;63175;52.374;13.132;2023-04-15T02:49:54;13.60;;;11.50;;
7158;SDS011;63175;52.374;13.132;2023-04-15T02:52:23;14.00;;;12.20;;
7158;SDS011;63175;52.374;13.132;2023-04-15T02:54:50;15.60;;;12.50;;
7158;SDS011;63175;52.374;13.132;2023-04-15T02:57:17;14.77;;;12.33;;
7158;SDS011;63175;52.374;13.132;2023-04-15T02:59:44;13.50;;;11.80;;
7158;SDS011;63175;52.374;13.132;2023-04-15T03:02:11;12.23;;;11.03;;
7158;SDS011;63175;52.374;13.132;2023-04-15T03:04:38;12.40;;;11.20;;
7158;SDS011;63175;52.374;13.132;2023-04-15T03:07:05;14.23;;;12.80;;
7158;SDS011;63175;52.374;13.132;2023-04-15T03:09:33;16.23;;;11.80;;
7158;SDS011;63175;52.374;13.132;2023-04-15T03:12:00;11.93;;;10.53;;
7158;SDS011;63175;52.374;13.132;2023-04-15T03:14:27;15.10;;;12.00;;
7158;SDS011;63175;52.374;13.132;2023-04-15T03:16:54;12.53;;;11.20;;
7158;SDS011;63175;52.374;13.132;2023-04-15T03:19:21;13.00;;;11.27;;
7158;SDS011;63175;52.374;13.132;2023-04-15T03:21:48;13.90;;;11.43;;
7158;SDS011;63175;52.374;13.132;2023-04-15T03:24:15;14.33;;;11.27;;
7158;SDS011;63175;52.374;13.132;2023-04-15T03:26:43;15.27;;;12.00;;
7158;SDS011;63175;52.374;13.132;2023-04-15T03:29:10;13.37;;;11.60;;
7158;SDS011;63175;52.374;13.132;2023-04-15T03:31:36;15.67;;;12.63;;
7158;SDS011;63175;52.374;13.132;2023-04-15T03:34:03;14.07;;;11.70;;
7158;SDS011;63175;52.374;13.132;2023-04-15T03:36:30;12.73;;;10.37;;
7158;SDS011;63175;52.374;13.132;2023-04-15T03:38:58;13.03;;;11.20;;
7158;SDS011;63175;52.374;13.132;2023-04-15T03:41:26;16.23;;;11.33;;
7158;SDS011;63175;52.374;13.132;2023-04-15T03:43:54;12.40;;;10.77;;
7158;SDS011;63175;52.374;13.132;2023-04-15T03:46:22;12.73;;;11.30;;
7158;SDS011;63175;52.374;13.132;2023-04-15T03:48:48;13.80;;;10.60;;
7158;SDS011;63175;52.374;13.132;2023-04-15T03:51:15;11.63;;;10.53;;
7158;SDS011;63175;52.374;13.132;2023-04-15T03:53:42;12.93;;;11.63;;
7158;SDS011;63175;52.374;13.132;2023-04-15T03:56:09;13.60;;;11.13;;
7158;SDS011;63175;52.374;13.132;2023-04-15T03:58:36;13.43;;;11.97;;
7158;SDS011;63175;52.374;13.132;2023-04-15T04:01:04;15.23;;;10.50;;
7158;SDS011;63175;52.374;13.132;2023-04-15T04:03:31;12.57;;;11.23;;
7158;SDS011;63175;52.374;13.132;2023-04-15T04:05:58;14.33;;;10.93;;
7158;SDS011;63175;52.374;13.132;2023-04-15T04:08:25;12.37;;;11.07;;
7158;SDS011;63175;52.374;13.132;2023-04-15T04:10:52;13.67;;;10.97;;
7158;SDS011;63175;52.374;13.132;2023-04-15T04:13:19;14.00;;;11.37;;
7158;SDS011;63175;52.374;13.132;2023-04-15T04:15:45;12.87;;;10.37;;
7158;SDS011;63175;52.374;13.132;2023-04-15T04:18:14;11.87;;;10.23;;
7158;SDS011;63175;52.374;13.132;2023-04-15T04:20:41;11.10;;;9.90;;
7158;SDS011;63175;52.374;13.132;2023-04-15T04:23:08;17.70;;;12.00;;
7158;SDS011;63175;52.374;13.132;2023-04-15T04:25:35;14.60;;;11.33;;
7158;SDS011;63175;52.374;13.132;2023-04-15T04:28:03;14.17;;;11.93;;
7158;SDS011;63175;52.374;13.132;2023-04-15T04:30:30;18.20;;;13.20;;
7158;SDS011;63175;52.374;13.132;2023-04-15T04:32:57;14.10;;;11.87;;
7158;SDS011;63175;52.374;13.132;2023-04-15T04:35:25;13.87;;;11.63;;
7158;SDS011;63175;52.374;13.132;2023-04-15T04:37:52;13.87;;;11.03;;
7158;SDS011;63175;52.374;13.132;2023-04-15T04:40:19;14.77;;;11.40;;
7158;SDS011;63175;52.374;13.132;2023-04-15T04:42:46;12.93;;;11.27;;
7158;SDS011;63175;52.374;13.132;2023-04-15T04:45:13;14.50;;;11.47;;
7158;SDS011;63175;52.374;13.132;2023-04-15T04:47:39;14.67;;;11.23;;
7158;SDS011;63175;52.374;13.132;2023-04-15T04:50:07;16.73;;;13.70;;
7158;SDS011;63175;52.374;13.132;2023-04-15T04:52:35;17.90;;;13.47;;
7158;SDS011;63175;52.374;13.132;2023-04-15T04:55:02;14.30;;;12.57;;
7158;SDS011;63175;52.374;13.132;2023-04-15T04:57:29;14.40;;;11.10;;
7158;SDS011;63175;52.374;13.132;2023-04-15T04:59:56;12.73;;;11.23;;
7158;SDS011;63175;52.374;13.132;2023-04-15T05:02:23;13.37;;;10.77;;
7158;SDS011;63175;52.374;13.132;2023-04-15T05:04:51;12.23;;;10.93;;
7158;SDS011;63175;52.374;13.132;2023-04-15T05:07:19;16.23;;;12.03;;
7158;SDS011;63175;52.374;13.132;2023-04-15T05:09:47;15.00;;;12.57;;
7158;SDS011;63175;52.374;13.132;2023-04-15T05:12:14;13.20;;;11.80;;
7158;SDS011;63175;52.374;13.132;2023-04-15T05:14:42;12.53;;;10.60;;
7158;SDS011;63175;52.374;13.132;2023-04-15T05:17:10;11.13;;;10.00;;
7158;SDS011;63175;52.374;13.132;2023-04-15T05:19:38;11.50;;;10.00;;
7158;SDS011;63175;52.374;13.132;2023-04-15T05:22:05;12.63;;;10.90;;
7158;SDS011;63175;52.374;13.132;2023-04-15T05:24:32;11.70;;;10.33;;
7158;SDS011;63175;52.374;13.132;2023-04-15T05:27:00;11.23;;;10.03;;
7158;SDS011;63175;52.374;13.132;2023-04-15T05:29:27;12.60;;;10.50;;
7158;SDS011;63175;52.374;13.132;2023-04-15T05:31:54;11.70;;;9.30;;
7158;SDS011;63175;52.374;13.132;2023-04-15T05:34:21;10.43;;;9.40;;
7158;SDS011;63175;52.374;13.132;2023-04-15T05:36:48;8.97;;;8.07;;
7158;SDS011;63175;52.374;13.132;2023-04-15T05:39:16;9.67;;;8.77;;
7158;SDS011;63175;52.374;13.132;2023-04-15T05:41:43;10.27;;;8.80;;
7158;SDS011;63175;52.374;13.132;2023-04-15T05:44:12;9.93;;;8.93;;
7158;SDS011;63175;52.374;13.132;2023-04-15T05:46:39;8.97;;;8.07;;
7158;SDS011;63175;52.374;13.132;2023-04-15T05:49:06;9.03;;;8.20;;
7158;SDS011;63175;52.374;13.132;2023-04-15T05:51:32;10.00;;;9.00;;
7158;SDS011;63175;52.374;13.132;2023-04-15T05:53:59;9.17;;;8.27;;
7158;SDS011;63175;52.374;13.132;2023-04-15T05:56:26;8.80;;;7.47;;
7158;SDS011;63175;52.374;13.132;2023-04-15T05:58:53;10.97;;;9.60;;
7158;SDS011;63175;52.374;13.132;2023-04-15T06:01:21;9.07;;;8.17;;
7158;SDS011;63175;52.374;13.132;2023-04-15T06:03:49;8.47;;;7.77;;
7158;SDS011;63175;52.374;13.132;2023-04-15T06:06:16;9.03;;;8.13;;
7158;SDS011;63175;52.374;13.132;2023-04-15T06:08:43;8.97;;;8.03;;
7158;SDS011;63175;52.374;13.132;2023-04-15T06:11:10;10.57;;;8.90;;
7158;SDS011;63175;52.374;13.132;2023-04-15T06:13:37;9.40;;;8.47;;
7158;SDS011;63175;52.374;13.132;2023-04-15T06:16:04;10.13;;;9.03;;
7158;SDS011;63175;52.374;13.132;2023-04-15T06:18:33;9.90;;;8.90;;
7158;SDS011;63175;52.374;13.132;2023-04-15T06:21:00;10.27;;;9.13;;
7158;SDS011;63175;52.374;13.132;2023-04-15T06:23:26;10.30;;;9.10;;
7158;SDS011;63175;52.374;13.132;2023-04-15T06:25:53;10.13;;;9.13;;
7158;SDS011;63175;52.374;13.132;2023-04-15T06:28:20;9.50;;;8.53;;
7158;SDS011;63175;52.374;13.132;2023-04-15T06:30:47;9.30;;;8.20;;
7158;SDS011;63175;52.374;13.132;2023-04-15T06:33:14;8.47;;;7.67;;
7158;SDS011;63175;52.374;13.132;2023-04-15T06:35:43;7.60;;;7.00;;
7158;SDS011;63175;52.374;13.132;2023-04-15T06:38:10;8.83;;;8.00;;
7158;SDS011;63175;52.374;13.132;2023-04-15T06:40:37;8.43;;;7.50;;
7158;SDS011;63175;52.374;13.132;2023-04-15T06:43:03;7.83;;;7.13;;
7158;SDS011;63175;52.374;13.132;2023-04-15T06:45:30;7.50;;;6.80;;
7158;SDS011;63175;52.374;13.132;2023-04-15T06:47:57;6.67;;;6.07;;
7158;SDS011;63175;52.374;13.132;2023-04-15T06:50:24;6.80;;;6.17;;
7158;SDS011;63175;52.374;13.132;2023-04-15T06:52:52;6.73;;;6.10;;
7158;SDS011;63175;52.374;13.132;2023-04-15T06:55:21;6.70;;;6.10;;
7158;SDS011;63175;52.374;13.132;2023-04-15T06:57:48;5.67;;;5.27;;
7158;SDS011;63175;52.374;13.132;2023-04-15T07:00:15;6.70;;;6.20;;
7158;SDS011;63175;52.374;13.132;2023-04-15T07:02:43;7.20;;;6.50;;
7158;SDS011;63175;52.374;13.132;2023-04-15T07:05:10;7.53;;;6.90;;
7158;SDS011;63175;52.374;13.132;2023-04-15T07:07:37;7.57;;;6.87;;
7158;SDS011;63175;52.374;13.132;2023-04-15T07:10:06;8.30;;;6.77;;
7158;SDS011;63175;52.374;13.132;2023-04-15T07:12:34;7.63;;;6.93;;
7158;SDS011;63175;52.374;13.132;2023-04-15T07:15:00;7.27;;;6.57;;
7158;SDS011;63175;52.374;13.132;2023-04-15T07:17:27;6.00;;;5.60;;
7158;SDS011;63175;52.374;13.132;2023-04-15T07:19:54;7.17;;;6.57;;
7158;SDS011;63175;52.374;13.132;2023-04-15T07:22:21;6.33;;;5.80;;
7158;SDS011;63175;52.374;13.132;2023-04-15T07:24:48;6.33;;;5.83;;
7158;SDS011;63175;52.374;13.132;2023-04-15T07:27:16;6.03;;;5.53;;
7158;SDS011;63175;52.374;13.132;2023-04-15T07:29:45;5.87;;;5.37;;
7158;SDS011;63175;52.374;13.132;2023-04-15T07:32:11;5.97;;;5.50;;
7158;SDS011;63175;52.374;13.132;2023-04-15T07:34:38;5.77;;;5.33;;
7158;SDS011;63175;52.374;13.132;2023-04-15T07:37:05;6.67;;;6.10;;
7158;SDS011;63175;52.374;13.132;2023-04-15T07:39:32;6.60;;;6.10;;
7158;SDS011;63175;52.374;13.132;2023-04-15T07:41:59;6.03;;;5.53;;
7158;SDS011;63175;52.374;13.132;2023-04-15T07:44:27;6.80;;;6.20;;
7158;SDS011;63175;52.374;13.132;2023-04-15T07:46:54;7.33;;;6.67;;
7158;SDS011;63175;52.374;13.132;2023-04-15T07:49:21;7.57;;;6.97;;
7158;SDS011;63175;52.374;13.132;2023-04-15T07:51:48;6.93;;;6.23;;
7158;SDS011;63175;52.374;13.132;2023-04-15T07:54:15;6.53;;;5.93;;
7158;SDS011;63175;52.374;13.132;2023-04-15T07:56:42;6.07;;;5.67;;
7158;SDS011;63175;52.374;13.132;2023-04-15T07:59:11;6.47;;;5.87;;
7158;SDS011;63175;52.374;13.132;2023-04-15T08:01:40;6.20;;;5.80;;
7158;SDS011;63175;52.374;13.132;2023-04-15T08:04:08;7.20;;;6.57;;
7158;SDS011;63175;52.374;13.132;2023-04-15T08:06:34;6.87;;;6.27;;
7158;SDS011;63175;52.374;13.132;2023-04-15T08:09:03;5.70;;;5.20;;
7158;SDS011;63175;52.374;13.132;2023-04-15T08:11:31;5.47;;;5.07;;
7158;SDS011;63175;52.374;13.132;2023-04-15T08:13:58;6.37;;;5.87;;
7158;SDS011;63175;52.374;13.132;2023-04-15T08:16:25;6.03;;;5.53;;
7158;SDS011;63175;52.374;13.132;2023-04-15T08:18:54;6.57;;;6.07;;
7158;SDS011;63175;52.374;13.132;2023-04-15T08:21:22;5.80;;;5.40;;
7158;SDS011;63175;52.374;13.132;2023-04-15T08:23:50;6.30;;;5.83;;
7158;SDS011;63175;52.374;13.132;2023-04-15T08:26:17;6.37;;;5.87;;
7158;SDS011;63175;52.374;13.132;2023-04-15T08:28:45;6.47;;;5.97;;
7158;SDS011;63175;52.374;13.132;2023-04-15T08:31:13;6.57;;;6.00;;
7158;SDS011;63175;52.374;13.132;2023-04-15T08:33:40;6.10;;;5.60;;
7158;SDS011;63175;52.374;13.132;2023-04-15T08:36:09;5.87;;;5.37;;
7158;SDS011;63175;52.374;13.132;2023-04-15T08:38:36;6.50;;;5.90;;
7158;SDS011;63175;52.374;13.132;2023-04-15T08:41:03;6.20;;;5.77;;
7158;SDS011;63175;52.374;13.132;2023-04-15T08:43:36;7.90;;;7.30;;
7158;SDS011;63175;52.374;13.132;2023-04-15T08:46:08;8.87;;;8.03;;
7158;SDS011;63175;52.374;13.132;2023-04-15T08:48:37;7.83;;;7.20;;
7158;SDS011;63175;52.374;13.132;2023-04-15T08:51:05;6.67;;;6.17;;
7158;SDS011;63175;52.374;13.132;2023-04-15T08:53:33;7.20;;;6.60;;
7158;SDS011;63175;52.374;13.132;2023-04-15T08:56:02;6.17;;;5.77;;
7158;SDS011;63175;52.374;13.132;2023-04-15T08:58:32;5.87;;;5.47;;
7158;SDS011;63175;52.374;13.132;2023-04-15T09:01:00;7.50;;;6.90;;
7158;SDS011;63175;52.374;13.132;2023-04-15T09:03:27;6.23;;;5.73;;
7158;SDS011;63175;52.374;13.132;2023-04-15T09:05:55;6.50;;;6.00;;
7158;SDS011;63175;52.374;13.132;2023-04-15T09:08:22;5.83;;;5.43;;
7158;SDS011;63175;52.374;13.132;2023-04-15T09:10:50;8.57;;;7.87;;
7158;SDS011;63175;52.374;13.132;2023-04-15T09:13:18;7.03;;;6.43;;
7158;SDS011;63175;52.374;13.132;2023-04-15T09:15:46;7.37;;;6.67;;
7158;SDS011;63175;52.374;13.132;2023-04-15T09:18:13;7.70;;;7.00;;
7158;SDS011;63175;52.374;13.132;2023-04-15T09:20:53;7.60;;;7.00;;
7158;SDS011;63175;52.374;13.132;2023-04-15T09:23:20;9.07;;;8.27;;
7158;SDS011;63175;52.374;13.132;2023-04-15T09:25:47;8.23;;;7.43;;
7158;SDS011;63175;52.374;13.132;2023-04-15T09:28:22;7.97;;;7.27;;
7158;SDS011;63175;52.374;13.132;2023-04-15T09:30:50;8.13;;;7.43;;
7158;SDS011;63175;52.374;13.132;2023-04-15T09:33:20;7.00;;;6.50;;
7158;SDS011;63175;52.374;13.132;2023-04-15T09:35:55;6.93;;;6.37;;
7158;SDS011;63175;52.374;13.132;2023-04-15T09:38:23;6.53;;;6.03;;
7158;SDS011;63175;52.374;13.132;2023-04-15T09:40:50;7.13;;;6.63;;
7158;SDS011;63175;52.374;13.132;2023-04-15T09:43:18;6.17;;;5.67;;
7158;SDS011;63175;52.374;13.132;2023-04-15T09:45:49;7.10;;;6.40;;
7158;SDS011;63175;52.374;13.132;2023-04-15T09:48:17;6.63;;;6.07;;
7158;SDS011;63175;52.374;13.132;2023-04-15T09:50:46;7.10;;;6.50;;
7158;SDS011;63175;52.374;13.132;2023-04-15T09:53:17;7.57;;;6.97;;
7158;SDS011;63175;52.374;13.132;2023-04-15T09:55:46;7.80;;;7.10;;
7158;SDS011;63175;52.374;13.132;2023-04-15T09:58:20;7.30;;;6.70;;
7158;SDS011;63175;52.374;13.132;2023-04-15T10:00:49;6.80;;;6.20;;
7158;SDS011;63175;52.374;13.132;2023-04-15T10:03:17;6.57;;;5.97;;
7158;SDS011;63175;52.374;13.132;2023-04-15T10:05:46;8.40;;;7.77;;
7158;SDS011;63175;52.374;13.132;2023-04-15T10:08:15;7.80;;;7.10;;
7158;SDS011;63175;52.374;13.132;2023-04-15T10:10:44;7.37;;;6.70;;
7158;SDS011;63175;52.374;13.132;2023-04-15T10:13:12;6.70;;;6.20;;
7158;SDS011;63175;52.374;13.132;2023-04-15T10:15:41;6.57;;;6.03;;
7158;SDS011;63175;52.374;13.132;2023-04-15T10:18:10;6.50;;;6.00;;
7158;SDS011;63175;52.374;13.132;2023-04-15T10:20:40;6.57;;;5.97;;
7158;SDS011;63175;52.374;13.132;2023-04-15T10:23:07;7.00;;;6.50;;
7158;SDS011;63175;52.374;13.132;2023-04-15T10:25:35;6.80;;;6.20;;
7158;SDS011;63175;52.374;13.132;2023-04-15T10:28:02;7.80;;;7.10;;
7158;SDS011;63175;52.374;13.132;2023-04-15T10:30:30;7.47;;;6.77;;
7158;SDS011;63175;52.374;13.132;2023-04-15T10:32:59;7.60;;;7.00;;
7158;SDS011;63175;52.374;13.132;2023-04-15T10:35:28;7.00;;;6.40;;
7158;SDS011;63175;52.374;13.132;2023-04-15T10:37:55;7.20;;;6.60;;
7158;SDS011;63175;52.374;13.132;2023-04-15T10:40:24;6.73;;;6.23;;
7158;SDS011;63175;52.374;13.132;2023-04-15T10:42:53;6.47;;;5.97;;
7158;SDS011;63175;52.374;13.132;2023-04-15T10:45:20;7.00;;;6.50;;
7158;SDS011;63175;52.374;13.132;2023-04-15T10:47:50;7.00;;;6.50;;
7158;SDS011;63175;52.374;13.132;2023-04-15T10:50:21;7.13;;;6.53;;
7158;SDS011;63175;52.374;13.132;2023-04-15T10:52:50;6.13;;;5.73;;
7158;SDS011;63175;52.374;13.132;2023-04-15T10:55:18;6.97;;;6.47;;
7158;SDS011;63175;52.374;13.132;2023-04-15T10:57:50;6.30;;;5.80;;
7158;SDS011;63175;52.374;13.132;2023-04-15T11:00:19;6.33;;;5.83;;
7158;SDS011;63175;52.374;13.132;2023-04-15T11:02:47;6.30;;;5.83;;
7158;SDS011;63175;52.374;13.132;2023-04-15T11:05:19;6.80;;;6.30;;
7158;SDS011;63175;52.374;13.132;2023-04-15T11:07:52;6.93;;;6.43;;
7158;SDS011;63175;52.374;13.132;2023-04-15T11:13:23;6.30;;;5.80;;
7158;SDS011;63175;52.374;13.132;2023-04-15T11:15:56;6.67;;;6.17;;
7158;SDS011;63175;52.374;13.132;2023-04-15T11:18:28;5.60;;;5.20;;
7158;SDS011;63175;52.374;13.132;2023-04-15T11:20:59;6.00;;;5.40;;
7158;SDS011;63175;52.374;13.132;2023-04-15T11:23:31;6.53;;;6.03;;
7158;SDS011;63175;52.374;13.132;2023-04-15T11:26:03;4.67;;;4.37;;
7158;SDS011;63175;52.374;13.132;2023-04-15T11:28:33;5.67;;;5.27;;
7158;SDS011;63175;52.374;13.132;2023-04-15T11:31:07;6.83;;;6.30;;
7158;SDS011;63175;52.374;13.132;2023-04-15T11:33:36;5.40;;;5.00;;
7158;SDS011;63175;52.374;13.132;2023-04-15T11:36:05;6.03;;;5.63;;
7158;SDS011;63175;52.374;13.132;2023-04-15T11:38:32;6.57;;;6.07;;
7158;SDS011;63175;52.374;13.132;2023-04-15T11:40:59;5.40;;;5.00;;
7158;SDS011;63175;52.374;13.132;2023-04-15T11:43:26;5.70;;;5.30;;
7158;SDS011;63175;52.374;13.132;2023-04-15T11:45:57;5.17;;;4.80;;
7158;SDS011;63175;52.374;13.132;2023-04-15T11:48:25;4.83;;;4.50;;
7158;SDS011;63175;52.374;13.132;2023-04-15T11:50:53;5.07;;;4.60;;
7158;SDS011;63175;52.374;13.132;2023-04-15T11:53:23;5.03;;;4.73;;
7158;SDS011;63175;52.374;13.132;2023-04-15T11:55:50;4.37;;;4.10;;
7158;SDS011;63175;52.374;13.132;2023-04-15T11:58:19;4.17;;;3.97;;
7158;SDS011;63175;52.374;13.132;2023-04-15T12:00:47;4.60;;;4.30;;
7158;SDS011;63175;52.374;13.132;2023-04-15T12:03:17;6.67;;;4.30;;
7158;SDS011;63175;52.374;13.132;2023-04-15T12:06:07;5.17;;;4.87;;
7158;SDS011;63175;52.374;13.132;2023-04-15T12:08:57;4.80;;;4.50;;
7158;SDS011;63175;52.374;13.132;2023-04-15T12:11:27;4.40;;;4.10;;
7158;SDS011;63175;52.374;13.132;2023-04-15T12:13:56;4.07;;;3.87;;
7158;SDS011;63175;52.374;13.132;2023-04-15T12:16:26;4.20;;;4.00;;
7158;SDS011;63175;52.374;13.132;2023-04-15T12:18:55;4.43;;;4.17;;
7158;SDS011;63175;52.374;13.132;2023-04-15T12:21:23;4.30;;;4.00;;
7158;SDS011;63175;52.374;13.132;2023-04-15T12:23:52;4.40;;;4.10;;
7158;SDS011;63175;52.374;13.132;2023-04-15T12:26:26;4.33;;;4.03;;
7158;SDS011;63175;52.374;13.132;2023-04-15T12:28:54;4.80;;;4.43;;
7158;SDS011;63175;52.374;13.132;2023-04-15T12:31:21;4.70;;;4.40;;
7158;SDS011;63175;52.374;13.132;2023-04-15T12:33:49;4.60;;;4.30;;
7158;SDS011;63175;52.374;13.132;2023-04-15T12:36:15;5.27;;;4.87;;
7158;SDS011;63175;52.374;13.132;2023-04-15T12:38:42;4.67;;;4.40;;
7158;SDS011;63175;52.374;13.132;2023-04-15T12:41:09;4.63;;;4.33;;
7158;SDS011;63175;52.374;13.132;2023-04-15T12:43:37;4.67;;;4.37;;
7158;SDS011;63175;52.374;13.132;2023-04-15T12:46:04;4.90;;;4.60;;
7158;SDS011;63175;52.374;13.132;2023-04-15T12:48:32;4.57;;;4.30;;
7158;SDS011;63175;52.374;13.132;2023-04-15T12:50:59;4.37;;;4.13;;
7158;SDS011;63175;52.374;13.132;2023-04-15T12:53:26;4.60;;;4.30;;
7158;SDS011;63175;52.374;13.132;2023-04-15T12:55:53;4.30;;;4.10;;
7158;SDS011;63175;52.374;13.132;2023-04-15T12:58:20;4.47;;;4.20;;
7158;SDS011;63175;52.374;13.132;2023-04-15T13:00:48;4.30;;;4.00;;
7158;SDS011;63175;52.374;13.132;2023-04-15T13:03:15;4.03;;;3.83;;
7158;SDS011;63175;52.374;13.132;2023-04-15T13:05:43;4.10;;;3.90;;
7158;SDS011;63175;52.374;13.132;2023-04-15T13:08:10;3.93;;;3.73;;
7158;SDS011;63175;52.374;13.132;2023-04-15T13:10:36;4.03;;;3.83;;
7158;SDS011;63175;52.374;13.132;2023-04-15T13:13:03;4.37;;;4.07;;
7158;SDS011;63175;52.374;13.132;2023-04-15T13:15:31;4.17;;;3.93;;
7158;SDS011;63175;52.374;13.132;2023-04-15T13:17:59;4.10;;;3.90;;
7158;SDS011;63175;52.374;13.132;2023-04-15T13:20:26;4.63;;;4.37;;
7158;SDS011;63175;52.374;13.132;2023-04-15T13:22:53;4.30;;;4.00;;
7158;SDS011;63175;52.374;13.132;2023-04-15T13:25:20;4.03;;;3.73;;
7158;SDS011;63175;52.374;13.132;2023-04-15T13:27:47;3.60;;;3.40;;
7158;SDS011;63175;52.374;13.132;2023-04-15T13:30:13;3.60;;;3.40;;
7158;SDS011;63175;52.374;13.132;2023-04-15T13:32:40;3.83;;;3.63;;
7158;SDS011;63175;52.374;13.132;2023-04-15T13:35:09;4.30;;;4.00;;
7158;SDS011;63175;52.374;13.132;2023-04-15T13:37:35;3.50;;;3.30;;
7158;SDS011;63175;52.374;13.132;2023-04-15T13:40:03;3.07;;;2.97;;
7158;SDS011;63175;52.374;13.132;2023-04-15T13:42:32;3.70;;;3.50;;
7158;SDS011;63175;52.374;13.132;2023-04-15T13:44:59;4.03;;;3.83;;
7158;SDS011;63175;52.374;13.132;2023-04-15T13:47:26;3.57;;;3.40;;
7158;SDS011;63175;52.374;13.132;2023-04-15T13:49:52;4.50;;;4.20;;
7158;SDS011;63175;52.374;13.132;2023-04-15T13:52:22;3.77;;;3.57;;
7158;SDS011;63175;52.374;13.132;2023-04-15T13:54:48;4.23;;;4.00;;
7158;SDS011;63175;52.374;13.132;2023-04-15T13:57:16;3.73;;;3.50;;
7158;SDS011;63175;52.374;13.132;2023-04-15T13:59:43;4.20;;;4.00;;
7158;SDS011;63175;52.374;13.132;2023-04-15T14:02:10;3.80;;;3.50;;
7158;SDS011;63175;52.374;13.132;2023-04-15T14:04:36;4.10;;;3.80;;
7158;SDS011;63175;52.374;13.132;2023-04-15T14:07:03;3.90;;;3.70;;
7158;SDS011;63175;52.374;13.132;2023-04-15T14:09:31;4.33;;;4.03;;
7158;SDS011;63175;52.374;13.132;2023-04-15T14:11:58;4.00;;;3.80;;
7158;SDS011;63175;52.374;13.132;2023-04-15T14:14:26;5.00;;;4.70;;
7158;SDS011;63175;52.374;13.132;2023-04-15T14:16:53;4.70;;;4.40;;
7158;SDS011;63175;52.374;13.132;2023-04-15T14:19:21;4.20;;;4.00;;
7158;SDS011;63175;52.374;13.132;2023-04-15T14:21:48;3.90;;;3.70;;
7158;SDS011;63175;52.374;13.132;2023-04-15T14:24:15;4.20;;;4.00;;
7158;SDS011;63175;52.374;13.132;2023-04-15T14:26:43;4.33;;;4.03;;
7158;SDS011;63175;52.374;13.132;2023-04-15T14:29:10;4.07;;;3.87;;
7158;SDS011;63175;52.374;13.132;2023-04-15T14:31:37;4.57;;;4.37;;
7158;SDS011;63175;52.374;13.132;2023-04-15T14:34:04;3.67;;;3.47;;
7158;SDS011;63175;52.374;13.132;2023-04-15T14:36:31;3.63;;;3.47;;
7158;SDS011;63175;52.374;13.132;2023-04-15T14:38:57;3.43;;;3.30;;
7158;SDS011;63175;52.374;13.132;2023-04-15T14:41:24;4.13;;;3.93;;
7158;SDS011;63175;52.374;13.132;2023-04-15T14:43:52;3.60;;;3.40;;
7158;SDS011;63175;52.374;13.132;2023-04-15T14:46:20;4.07;;;3.80;;